Time;durP1;ratioP1;P1;durP2;ratioP2;P2;SDS_P1;SDS_P2;PMS_P1;PMS_P2;Temp;Humidity;BMP_temperature;BMP_pressure;BME280_temperature;BME280_humidity;BME280_pressure;Samples;Min_cycle;Max_cycle;Signal;HPM_P1;HPM_P2
2023/01/01 00:01:49;;;;;;;36.70;20.08;;;;;;;9.97;74.16;98916.99;1824580;78;25614;-68
2023/01/01 00:04:15;;;;;;;29.32;16.27;;;;;;;9.95;74.13;98917.84;1794692;78;28098;-67
2023/01/01 00:06:42;;;;;;;25.72;14.30;;;;;;;9.94;74.11;98915.68;1794733;78;25745;-67
2023/01/01 00:11:54;;;;;;;24.40;13.98;;;;;;;9.98;74.01;98912.58;1777004;78;25942;-68
2023/01/01 00:14:21;;;;;;;26.12;13.70;;;;;;;10.03;73.94;98898.80;1789020;79;25580;-67
2023/01/01 00:16:48;;;;;;;29.65;14.75;;;;;;;10.03;73.87;98906.20;1744211;79;27964;-67
2023/01/01 00:19:14;;;;;;;26.30;14.20;;;;;;;10.08;73.78;98906.11;1747563;78;25506;-67
2023/01/01 00:21:41;;;;;;;23.18;11.25;;;;;;;10.08;73.79;98901.18;1770080;78;25663;-67
2023/01/01 00:24:08;;;;;;;20.97;12.98;;;;;;;10.07;73.71;98894.88;1769770;78;25809;-67
2023/01/01 00:26:34;;;;;;;22.42;12.58;;;;;;;10.08;73.76;98902.00;1770119;78;25649;-66
2023/01/01 00:29:00;;;;;;;21.02;12.73;;;;;;;10.04;73.73;98900.42;1770312;78;27379;-66
2023/01/01 00:31:27;;;;;;;22.40;13.32;;;;;;;10.01;73.78;98908.41;1769869;78;25795;-65
2023/01/01 00:33:55;;;;;;;27.48;15.45;;;;;;;9.95;73.81;98904.97;1770213;78;25759;-66
2023/01/01 00:36:25;;;;;;;28.75;16.57;;;;;;;9.93;73.89;98918.14;1770439;78;26487;-67
2023/01/01 00:38:51;;;;;;;27.30;16.40;;;;;;;9.92;73.84;98922.00;1770275;78;25600;-66
2023/01/01 00:41:19;;;;;;;26.97;15.58;;;;;;;9.92;73.76;98923.38;1770053;78;27479;-66
2023/01/01 00:43:47;;;;;;;23.95;13.88;;;;;;;9.91;73.73;98920.39;1770018;78;25731;-67
2023/01/01 00:46:14;;;;;;;21.68;12.55;;;;;;;9.89;73.70;98917.95;1770191;78;25466;-67
2023/01/01 00:48:40;;;;;;;21.45;12.50;;;;;;;9.90;73.75;98914.09;1726781;78;27506;-67
2023/01/01 00:51:07;;;;;;;22.22;12.78;;;;;;;9.97;73.69;98904.67;1796207;78;25555;-66
2023/01/01 00:53:35;;;;;;;16.50;8.98;;;;;;;10.00;73.66;98909.54;1770173;78;27388;-67
2023/01/01 00:56:02;;;;;;;14.78;8.98;;;;;;;10.06;73.20;98905.59;1821245;78;25588;-66
2023/01/01 00:58:28;;;;;;;20.77;11.05;;;;;;;10.28;72.54;98916.39;1770577;78;25519;-66
2023/01/01 01:00:55;;;;;;;19.35;11.38;;;;;;;10.40;72.64;98918.61;1770085;78;25747;-66
2023/01/01 01:03:28;;;;;;;18.65;10.05;;;;;;;10.49;72.33;98925.58;1766521;78;25574;-66
2023/01/01 01:06:07;;;;;;;14.50;7.85;;;;;;;10.57;71.86;98925.41;1771170;78;27337;-66
2023/01/01 01:08:36;;;;;;;17.80;9.88;;;;;;;10.64;71.30;98929.91;1798315;78;25434;-65
2023/01/01 01:11:16;;;;;;;19.62;11.57;;;;;;;10.65;71.24;98925.48;1741321;78;25655;-67
2023/01/01 01:13:45;;;;;;;15.85;9.95;;;;;;;10.66;71.46;98933.16;1796891;78;25808;-66
2023/01/01 01:16:22;;;;;;;20.15;12.28;;;;;;;10.61;71.14;98931.89;1818442;78;25451;-66
2023/01/01 01:18:56;;;;;;;22.25;13.32;;;;;;;10.56;71.49;98936.13;1822575;78;28118;-66
2023/01/01 01:21:24;;;;;;;20.92;12.03;;;;;;;10.47;71.75;98929.16;1795235;78;25669;-66
2023/01/01 01:23:52;;;;;;;14.63;7.50;;;;;;;10.41;71.88;98929.27;1795169;78;25720;-67
2023/01/01 01:26:26;;;;;;;19.17;10.72;;;;;;;10.32;71.73;98922.88;1821187;78;25612;-66
2023/01/01 01:28:53;;;;;;;22.27;10.35;;;;;;;10.32;71.86;98924.24;1822126;78;25585;-70
2023/01/01 01:31:21;;;;;;;17.20;11.05;;;;;;;10.31;71.87;98928.11;1794871;78;28274;-66
2023/01/01 01:33:49;;;;;;;19.35;11.40;;;;;;;10.31;71.87;98921.27;1821791;78;25663;-66
2023/01/01 01:36:18;;;;;;;18.92;9.95;;;;;;;10.32;71.82;98917.39;1757818;78;25701;-67
2023/01/01 01:38:45;;;;;;;15.40;8.38;;;;;;;10.32;71.83;98914.66;1821858;78;25759;-66
2023/01/01 01:41:15;;;;;;;15.53;8.40;;;;;;;10.28;71.63;98913.08;1821677;78;25390;-66
2023/01/01 01:43:52;;;;;;;14.30;8.20;;;;;;;10.29;71.67;98913.35;1783080;78;27249;-67
2023/01/01 01:46:29;;;;;;;14.05;7.35;;;;;;;10.27;71.77;98914.75;1849241;77;25698;-67
2023/01/01 01:49:01;;;;;;;14.65;8.08;;;;;;;10.22;71.71;98908.81;1821841;78;25497;-67
2023/01/01 01:51:35;;;;;;;19.12;11.00;;;;;;;10.19;71.95;98914.11;1821397;78;25675;-67
2023/01/01 01:54:06;;;;;;;17.85;10.53;;;;;;;10.12;72.10;98911.22;1837710;78;25645;-67
2023/01/01 01:56:52;;;;;;;18.92;10.93;;;;;;;10.06;72.26;98916.54;1819978;78;28633;-67
2023/01/01 01:59:20;;;;;;;19.75;11.22;;;;;;;9.99;72.37;98924.35;1837414;78;26572;-66
2023/01/01 02:01:46;;;;;;;21.27;12.60;;;;;;;9.89;72.53;98916.59;1821421;78;25681;-66
2023/01/01 02:04:12;;;;;;;16.80;10.40;;;;;;;9.83;72.68;98919.16;1794764;78;25766;-67
2023/01/01 02:06:40;;;;;;;18.07;10.50;;;;;;;9.75;72.93;98917.11;1794472;78;25836;-67
2023/01/01 02:09:08;;;;;;;19.50;11.63;;;;;;;9.69;73.08;98916.40;1794750;78;28206;-66
2023/01/01 02:11:34;;;;;;;19.60;10.98;;;;;;;9.69;73.03;98913.66;1821592;78;25647;-66
2023/01/01 02:14:02;;;;;;;19.12;11.18;;;;;;;9.70;73.09;98907.64;1821633;77;25723;-67
2023/01/01 02:16:46;;;;;;;16.12;9.23;;;;;;;9.74;73.14;98898.53;1823685;77;26615;-66
2023/01/01 02:19:32;;;;;;;14.93;8.10;;;;;;;9.83;73.02;98897.27;1852564;77;25404;-66
2023/01/01 02:22:25;;;;;;;14.40;7.80;;;;;;;9.96;72.76;98901.11;1809874;77;27357;-66
2023/01/01 02:25:06;;;;;;;15.40;7.95;;;;;;;10.05;72.50;98891.66;1823532;77;25949;-66
2023/01/01 02:28:06;;;;;;;13.58;7.58;;;;;;;10.15;72.20;98892.81;1852119;77;32811;-66
2023/01/01 02:30:36;;;;;;;12.75;7.92;;;;;;;10.21;71.96;98893.52;1823878;77;26560;-66
2023/01/01 02:33:11;;;;;;;12.80;7.78;;;;;;;10.29;71.91;98890.61;1823529;77;25787;-66
2023/01/01 02:35:56;;;;;;;12.90;8.33;;;;;;;10.32;71.72;98894.11;1797955;77;28329;-66
2023/01/01 02:38:30;;;;;;;12.60;7.55;;;;;;;10.36;71.57;98899.80;1809517;77;25659;-66
2023/01/01 02:41:04;;;;;;;15.85;8.73;;;;;;;10.40;71.63;98896.69;1851766;77;25648;-66
2023/01/01 02:43:30;;;;;;;13.55;7.78;;;;;;;10.43;71.61;98905.67;1821218;77;25729;-66
2023/01/01 02:45:56;;;;;;;14.68;8.15;;;;;;;10.40;71.66;98906.28;1752214;77;25424;-66
2023/01/01 02:48:46;;;;;;;20.88;8.10;;;;;;;10.34;71.84;98913.80;1796949;77;28399;-66
2023/01/01 02:51:47;;;;;;;14.98;8.13;;;;;;;10.28;71.91;98917.19;1823563;77;25655;-66
2023/01/01 02:54:38;;;;;;;16.70;8.60;;;;;;;10.21;72.07;98924.19;1819765;77;25663;-66
2023/01/01 02:57:38;;;;;;;18.60;12.05;;;;;;;10.12;72.14;98925.45;1852025;77;26607;-66
2023/01/01 03:00:23;;;;;;;14.93;9.20;;;;;;;10.05;72.25;98935.47;1823762;77;25662;-66
2023/01/01 03:03:13;;;;;;;16.93;10.30;;;;;;;9.93;72.35;98937.30;1826577;77;25892;-67
2023/01/01 03:09:16;;;;;;;15.65;9.55;;;;;;;9.74;72.66;98925.08;1851785;77;25394;-66
2023/01/01 03:12:19;;;;;;;16.85;9.08;;;;;;;9.64;72.99;98927.42;1852262;77;25675;-67
2023/01/01 03:14:56;;;;;;;15.65;9.10;;;;;;;9.61;73.18;98926.66;1851884;77;26314;-67
2023/01/01 03:17:43;;;;;;;17.75;10.72;;;;;;;9.62;73.14;98927.72;1851767;77;29562;-67
2023/01/01 03:20:15;;;;;;;17.12;10.90;;;;;;;9.63;73.03;98923.08;1823378;77;25952;-67
2023/01/01 03:22:43;;;;;;;14.25;8.10;;;;;;;9.61;73.12;98912.98;1851851;77;25621;-67
2023/01/01 03:25:18;;;;;;;15.00;9.43;;;;;;;9.61;73.15;98918.45;1823970;77;25726;-67
2023/01/01 03:27:52;;;;;;;14.95;9.38;;;;;;;9.63;73.13;98928.55;1851705;77;25485;-67
2023/01/01 03:30:20;;;;;;;18.32;10.40;;;;;;;9.61;73.19;98917.91;1809375;77;28055;-67
2023/01/01 03:33:02;;;;;;;22.67;12.13;;;;;;;9.62;73.23;98921.46;1823532;77;25779;-67
2023/01/01 03:35:55;;;;;;;23.00;12.30;;;;;;;9.62;73.26;98920.09;1823247;77;25607;-67
2023/01/01 03:38:26;;;;;;;19.82;11.80;;;;;;;9.59;73.31;98905.64;1852028;77;25750;-67
2023/01/01 03:40:57;;;;;;;19.15;11.50;;;;;;;9.57;73.39;98922.91;1851735;77;25570;-67
2023/01/01 03:43:48;;;;;;;19.45;10.35;;;;;;;9.56;73.44;98918.02;1863716;77;27347;-67
2023/01/01 03:46:19;;;;;;;16.87;8.68;;;;;;;9.54;73.62;98915.58;1864449;77;25395;-67
2023/01/01 03:48:59;;;;;;;16.90;9.45;;;;;;;9.56;73.59;98904.88;1843980;77;25619;-67
2023/01/01 03:51:58;;;;;;;14.87;8.28;;;;;;;9.58;73.56;98911.66;1847032;77;25860;-67
2023/01/01 03:55:05;;;;;;;16.12;8.68;;;;;;;9.61;73.59;98917.91;1863968;76;25602;-67
2023/01/01 03:58:16;;;;;;;21.15;10.43;;;;;;;9.66;73.54;98925.21;1846977;77;27545;-67
2023/01/01 04:01:02;;;;;;;12.95;8.53;;;;;;;9.70;73.53;98925.44;1864025;77;25624;-67
2023/01/01 04:03:30;;;;;;;15.85;8.90;;;;;;;9.74;73.46;98933.28;1846688;77;25694;-67
2023/01/01 04:05:57;;;;;;;16.00;8.83;;;;;;;9.70;73.60;98935.01;1847245;77;26545;-67
2023/01/01 04:08:24;;;;;;;17.30;10.03;;;;;;;9.69;73.72;98933.36;1847396;76;25628;-67
2023/01/01 04:10:59;;;;;;;17.75;9.35;;;;;;;9.68;73.80;98930.38;1847036;77;27271;-67
2023/01/01 04:13:26;;;;;;;13.48;7.87;;;;;;;9.64;73.89;98947.41;1847069;77;25598;-67
2023/01/01 04:15:52;;;;;;;19.73;7.90;;;;;;;9.66;74.03;98943.00;1846953;76;25407;-67
2023/01/01 04:18:18;;;;;;;9.58;5.20;;;;;;;9.73;73.92;98942.05;1846977;76;25790;-67
2023/01/01 04:20:44;;;;;;;17.30;8.93;;;;;;;9.77;73.86;98933.51;1846932;76;25578;-67
2023/01/01 04:23:11;;;;;;;12.55;7.10;;;;;;;9.83;73.72;98925.19;1819802;77;27388;-66
2023/01/01 04:25:39;;;;;;;11.53;6.78;;;;;;;9.91;73.48;98921.76;1819605;76;25641;-67
2023/01/01 04:28:05;;;;;;;13.05;6.75;;;;;;;10.04;73.04;98921.50;1846595;77;25615;-67
2023/01/01 04:30:32;;;;;;;11.20;7.15;;;;;;;10.15;72.68;98911.16;1847040;77;25943;-67
2023/01/01 04:32:58;;;;;;;10.65;6.45;;;;;;;10.26;72.63;98903.00;1792957;77;25654;-68
2023/01/01 04:35:25;;;;;;;8.43;5.90;;;;;;;10.31;72.51;98904.83;1819059;77;27500;-67
2023/01/01 04:37:51;;;;;;;8.40;5.25;;;;;;;10.35;72.37;98901.72;1847243;76;25429;-66
2023/01/01 04:40:19;;;;;;;8.45;4.55;;;;;;;10.42;72.02;98917.17;1819549;77;25679;-66
2023/01/01 04:42:46;;;;;;;8.93;5.17;;;;;;;10.56;71.25;98924.59;1819558;77;25733;-66
2023/01/01 04:45:13;;;;;;;9.58;5.62;;;;;;;10.66;71.15;98924.39;1815373;77;26188;-67
2023/01/01 04:47:40;;;;;;;8.55;5.33;;;;;;;10.74;71.13;98922.83;1819564;77;28088;-66
2023/01/01 04:50:08;;;;;;;10.30;5.20;;;;;;;10.77;71.08;98933.75;1819806;77;25796;-67
2023/01/01 04:52:34;;;;;;;9.43;6.03;;;;;;;10.79;70.92;98943.83;1799986;77;25434;-66
2023/01/01 04:55:00;;;;;;;8.30;4.95;;;;;;;10.80;71.05;98942.73;1819314;77;27898;-67
2023/01/01 04:57:29;;;;;;;16.75;8.58;;;;;;;10.79;70.85;98955.62;1819579;77;25624;-67
2023/01/01 04:59:56;;;;;;;12.85;7.62;;;;;;;10.77;70.97;98966.07;1847473;77;26881;-67
2023/01/01 05:02:22;;;;;;;11.00;5.78;;;;;;;10.75;71.01;98960.66;1846616;77;25696;-67
2023/01/01 05:04:48;;;;;;;10.40;6.60;;;;;;;10.74;70.98;98966.69;1803004;77;25628;-66
2023/01/01 05:07:14;;;;;;;11.38;6.97;;;;;;;10.74;70.94;98960.41;1819917;76;25772;-66
2023/01/01 05:09:40;;;;;;;8.93;5.20;;;;;;;10.74;70.77;98957.67;1799863;77;25445;-66
2023/01/01 05:12:07;;;;;;;11.00;5.78;;;;;;;10.71;70.47;98963.19;1819681;77;28156;-66
2023/01/01 05:14:33;;;;;;;9.70;6.05;;;;;;;10.71;70.53;98963.19;1846826;77;27222;-66
2023/01/01 05:16:59;;;;;;;10.45;6.17;;;;;;;10.69;70.42;98978.33;1819507;77;26328;-66
2023/01/01 05:19:26;;;;;;;10.05;5.92;;;;;;;10.63;70.71;98986.67;1847233;77;25816;-66
2023/01/01 05:21:53;;;;;;;9.73;5.95;;;;;;;10.58;70.88;98990.88;1819632;77;25733;-66
2023/01/01 05:24:19;;;;;;;9.03;5.90;;;;;;;10.57;70.99;98982.96;1795736;77;27353;-66
2023/01/01 05:26:45;;;;;;;7.28;5.35;;;;;;;10.55;70.80;98983.27;1793283;77;25796;-66
2023/01/01 05:29:11;;;;;;;8.98;5.22;;;;;;;10.61;70.65;98983.97;1847588;77;25432;-66
2023/01/01 05:31:38;;;;;;;7.90;4.95;;;;;;;10.63;70.60;98981.73;1781585;77;25735;-66
2023/01/01 05:34:05;;;;;;;7.37;5.10;;;;;;;10.69;70.34;98987.37;1847523;77;25650;-66
2023/01/01 05:36:37;;;;;;;9.83;5.42;;;;;;;10.75;70.22;98993.00;1847624;77;27567;-67
2023/01/01 05:39:08;;;;;;;5.87;4.50;;;;;;;10.77;70.07;98985.26;1864105;76;25774;-66
2023/01/01 05:41:35;;;;;;;8.40;5.50;;;;;;;10.80;69.75;98989.34;1844610;76;25474;-65
2023/01/01 05:44:04;;;;;;;9.80;5.87;;;;;;;10.85;69.58;98979.61;1819715;77;25627;-66
2023/01/01 05:46:32;;;;;;;9.45;6.03;;;;;;;10.89;69.47;98986.67;1793828;77;25497;-67
2023/01/01 05:48:58;;;;;;;9.15;5.47;;;;;;;10.89;69.57;98990.23;1820146;77;29484;-67
2023/01/01 05:51:27;;;;;;;9.85;5.80;;;;;;;10.88;69.35;98993.29;1819945;77;25677;-67
2023/01/01 05:53:55;;;;;;;11.83;7.12;;;;;;;10.86;69.52;99001.82;1847281;77;25447;-67
2023/01/01 05:56:22;;;;;;;10.25;6.53;;;;;;;10.83;69.68;99004.35;1846985;77;25640;-67
2023/01/01 05:58:49;;;;;;;9.53;5.05;;;;;;;10.79;69.54;99004.97;1820252;77;25439;-68
2023/01/01 06:01:25;;;;;;;8.30;4.90;;;;;;;10.78;69.52;99009.38;1819958;77;27513;-67
2023/01/01 06:03:54;;;;;;;9.08;5.78;;;;;;;10.77;69.50;99010.52;1819454;77;25803;-67
2023/01/01 06:06:24;;;;;;;8.30;5.30;;;;;;;10.78;69.70;99021.17;1847490;76;25725;-67
2023/01/01 06:08:54;;;;;;;10.73;6.10;;;;;;;10.78;69.52;99033.51;1796466;77;25600;-67
2023/01/01 06:11:24;;;;;;;8.00;4.65;;;;;;;10.78;69.51;99029.94;1847628;76;25432;-67
2023/01/01 06:14:00;;;;;;;7.30;4.37;;;;;;;10.73;69.60;99043.19;1819731;77;27019;-67
2023/01/01 06:16:29;;;;;;;10.18;5.85;;;;;;;10.71;69.72;99044.05;1821478;77;25647;-67
2023/01/01 06:19:00;;;;;;;11.85;6.80;;;;;;;10.66;69.92;99044.17;1846968;77;25724;-65
2023/01/01 06:21:29;;;;;;;8.58;5.47;;;;;;;10.62;70.12;99053.55;1819492;77;25684;-65
2023/01/01 06:23:59;;;;;;;6.60;4.33;;;;;;;10.57;70.23;99059.14;1799791;77;25426;-65
2023/01/01 06:26:36;;;;;;;12.05;7.12;;;;;;;10.49;70.39;99055.17;1847174;77;28465;-66
2023/01/01 06:29:03;;;;;;;8.73;5.53;;;;;;;10.41;70.70;99055.84;1847499;76;25609;-67
2023/01/01 06:31:30;;;;;;;13.00;7.67;;;;;;;10.34;70.85;99057.63;1819999;77;25547;-66
2023/01/01 06:33:56;;;;;;;10.93;6.35;;;;;;;10.31;70.98;99063.70;1819466;77;25602;-67
2023/01/01 06:36:25;;;;;;;12.25;6.55;;;;;;;10.28;70.99;99068.42;1815383;77;25850;-67
2023/01/01 06:38:55;;;;;;;12.68;6.97;;;;;;;10.29;70.99;99072.77;1800024;77;27398;-67
2023/01/01 06:41:24;;;;;;;11.93;7.00;;;;;;;10.28;70.98;99069.20;1819581;77;25559;-67
2023/01/01 06:43:50;;;;;;;10.58;6.20;;;;;;;10.28;71.08;99068.42;1846418;76;25783;-67
2023/01/01 06:46:24;;;;;;;13.18;7.15;;;;;;;10.28;71.07;99074.69;1819389;77;26789;-67
2023/01/01 06:48:55;;;;;;;22.30;11.70;;;;;;;10.25;71.23;99080.77;1794617;77;25685;-67
2023/01/01 06:51:25;;;;;;;363.82;228.83;;;;;;;10.20;71.38;99074.03;1818745;77;28566;-67
2023/01/01 06:53:52;;;;;;;82.80;56.13;;;;;;;10.18;71.69;99081.72;1875693;76;25753;-66
2023/01/01 06:56:20;;;;;;;47.05;28.70;;;;;;;10.12;71.77;99081.00;1847088;77;25720;-66
2023/01/01 06:58:47;;;;;;;67.45;45.00;;;;;;;10.10;71.87;99086.53;1847207;77;25763;-65
2023/01/01 07:01:17;;;;;;;27.40;17.85;;;;;;;10.06;72.07;99089.05;1861732;76;25576;-65
2023/01/01 07:03:46;;;;;;;149.38;79.03;;;;;;;10.00;72.21;99091.06;1854136;76;27511;-65
2023/01/01 07:06:12;;;;;;;86.00;41.20;;;;;;;9.98;72.23;99086.44;1883197;76;25689;-66
2023/01/01 07:08:38;;;;;;;36.28;19.40;;;;;;;9.96;72.27;99092.75;1832479;77;25680;-66
2023/01/01 07:11:04;;;;;;;46.18;21.62;;;;;;;9.97;72.25;99092.20;1824991;77;26008;-66
2023/01/01 07:13:30;;;;;;;39.42;18.85;;;;;;;9.97;72.28;99094.40;1798400;77;25705;-66
2023/01/01 07:15:57;;;;;;;16.77;8.30;;;;;;;9.99;72.26;99090.00;1797643;76;27376;-66
2023/01/01 07:18:24;;;;;;;44.88;18.82;;;;;;;9.99;72.28;99093.52;1812812;76;26758;-66
2023/01/01 07:20:54;;;;;;;24.90;16.42;;;;;;;10.02;72.27;99107.20;1786264;76;25696;-66
2023/01/01 07:23:21;;;;;;;17.00;9.08;;;;;;;10.02;72.33;99101.72;1839833;76;26501;-66
2023/01/01 07:25:49;;;;;;;84.85;64.50;;;;;;;10.00;72.46;99104.76;1833364;77;25684;-66
2023/01/01 07:28:16;;;;;;;26.27;19.30;;;;;;;10.00;72.52;99111.60;1795472;77;28334;-66
2023/01/01 07:30:42;;;;;;;20.15;13.00;;;;;;;9.96;72.73;99107.81;1822166;77;25775;-66
2023/01/01 07:33:14;;;;;;;29.12;20.20;;;;;;;9.96;72.58;99108.39;1822348;77;25735;-67
2023/01/01 07:35:41;;;;;;;39.45;28.25;;;;;;;9.94;72.66;99107.31;1822993;77;26062;-67
2023/01/01 07:38:07;;;;;;;128.57;101.38;;;;;;;9.92;72.72;99117.74;1841028;77;25645;-67
2023/01/01 07:40:33;;;;;;;53.68;42.50;;;;;;;9.89;72.84;99124.64;1841606;77;27233;-67
2023/01/01 07:42:59;;;;;;;29.55;19.60;;;;;;;9.86;73.09;99129.88;1813731;77;25945;-67
2023/01/01 07:45:26;;;;;;;17.80;12.15;;;;;;;9.82;73.24;99131.05;1838973;77;25740;-66
2023/01/01 07:47:55;;;;;;;183.00;153.18;;;;;;;9.79;73.30;99137.11;1846202;77;25696;-67
2023/01/01 07:50:22;;;;;;;35.85;27.85;;;;;;;9.81;73.41;99140.92;1845968;77;25645;-67
2023/01/01 07:52:49;;;;;;;118.30;96.00;;;;;;;9.83;73.28;99139.51;1802157;77;28183;-67
2023/01/01 07:55:19;;;;;;;104.97;85.95;;;;;;;9.87;73.24;99148.75;1818517;77;25739;-67
2023/01/01 07:57:47;;;;;;;69.60;58.25;;;;;;;9.93;73.19;99148.11;1801803;77;25759;-67
2023/01/01 08:00:18;;;;;;;34.40;25.62;;;;;;;9.99;73.08;99155.70;1846119;77;25686;-67
2023/01/01 08:02:44;;;;;;;;;;;;;;;10.03;72.96;99158.92;1849539;77;25701;-67
2023/01/01 08:05:11;;;;;;;26.68;20.12;;;;;;;10.04;72.94;99160.54;1846609;77;27431;-67
2023/01/01 08:07:37;;;;;;;54.50;39.83;;;;;;;10.04;73.01;99163.28;1845648;77;25624;-67
2023/01/01 08:10:06;;;;;;;159.00;129.85;;;;;;;10.04;73.11;99171.49;1863180;76;25708;-67
2023/01/01 08:12:33;;;;;;;102.40;82.22;;;;;;;10.03;73.21;99167.14;1862828;76;25815;-67
2023/01/01 08:14:59;;;;;;;36.15;25.68;;;;;;;10.03;73.22;99165.77;1845911;77;25737;-67
2023/01/01 08:17:25;;;;;;;40.10;31.73;;;;;;;10.04;73.22;99181.08;1845976;77;27461;-67
2023/01/01 08:19:51;;;;;;;21.57;14.90;;;;;;;10.03;73.20;99175.90;1818765;77;25734;-67
2023/01/01 08:22:18;;;;;;;142.87;107.78;;;;;;;10.06;73.11;99175.30;1846283;77;25672;-67
2023/01/01 08:24:44;;;;;;;66.60;47.35;;;;;;;10.09;73.31;99176.63;1846209;77;25742;-67
2023/01/01 08:27:16;;;;;;;230.32;182.40;;;;;;;10.13;73.11;99178.47;1846393;76;25672;-66
2023/01/01 08:29:43;;;;;;;250.22;201.25;;;;;;;10.18;73.09;99177.58;1818538;77;27866;-66
2023/01/01 08:32:11;;;;;;;44.08;32.85;;;;;;;10.21;72.96;99176.16;1818521;77;25696;-66
2023/01/01 08:34:37;;;;;;;227.68;168.10;;;;;;;10.27;72.40;99170.86;1815278;77;26992;-67
2023/01/01 08:37:04;;;;;;;97.90;63.15;;;;;;;10.29;72.45;99179.60;1818757;77;26516;-67
2023/01/01 08:39:31;;;;;;;139.07;88.58;;;;;;;10.28;72.08;99176.62;1846342;77;25693;-67
2023/01/01 08:41:57;;;;;;;155.60;91.45;;;;;;;10.31;72.28;99181.50;1845995;77;27574;-67
2023/01/01 08:44:23;;;;;;;50.03;30.72;;;;;;;10.33;72.37;99172.98;1819834;77;25719;-67
2023/01/01 08:46:51;;;;;;;25.60;15.65;;;;;;;10.39;72.24;99173.16;1793047;77;25690;-66
2023/01/01 08:49:18;;;;;;;143.32;82.02;;;;;;;10.53;71.85;99175.94;1847043;77;25575;-67
2023/01/01 08:51:44;;;;;;;47.93;26.10;;;;;;;10.73;71.80;99170.66;1819948;77;25611;-67
2023/01/01 08:54:10;;;;;;;91.78;48.17;;;;;;;10.94;71.54;99170.84;1847324;77;27923;-67
2023/01/01 08:56:36;;;;;;;190.60;105.32;;;;;;;11.13;70.48;99151.53;1819293;77;26130;-67
2023/01/01 08:59:03;;;;;;;27.20;17.02;;;;;;;11.31;69.87;99153.91;1819287;77;25634;-66
2023/01/01 09:01:29;;;;;;;27.73;15.65;;;;;;;11.53;69.96;99161.42;1847293;76;25617;-66
2023/01/01 09:03:55;;;;;;;106.30;58.30;;;;;;;11.73;69.41;99142.05;1819868;77;25614;-66
2023/01/01 09:06:21;;;;;;;37.33;20.02;;;;;;;11.93;68.26;99138.02;1847520;76;26729;-66
2023/01/01 09:08:48;;;;;;;254.03;135.78;;;;;;;12.09;68.62;99130.81;1847356;77;25647;-66
2023/01/01 09:11:24;;;;;;;24.37;12.90;;;;;;;12.16;68.12;99151.23;1846942;77;25570;-66
2023/01/01 09:13:51;;;;;;;275.20;126.02;;;;;;;12.22;67.85;99160.16;1847162;77;25734;-66
2023/01/01 09:16:17;;;;;;;24.20;12.23;;;;;;;12.29;67.82;99160.52;1819366;76;25783;-65
2023/01/01 09:18:43;;;;;;;15.50;9.03;;;;;;;12.37;67.40;99165.83;1847321;77;27437;-65
2023/01/01 09:21:09;;;;;;;12.43;7.22;;;;;;;12.47;67.43;99170.83;1819259;77;25707;-66
2023/01/01 09:23:36;;;;;;;18.25;10.53;;;;;;;12.50;66.05;99161.95;1793049;77;25753;-66
2023/01/01 09:26:05;;;;;;;13.22;7.50;;;;;;;12.63;67.12;99160.23;1781805;77;27484;-65
2023/01/01 09:28:33;;;;;;;50.05;23.75;;;;;;;12.79;66.57;99144.15;1849537;76;25774;-66
2023/01/01 09:31:00;;;;;;;13.20;7.15;;;;;;;12.97;65.50;99145.03;1854079;76;27384;-66
2023/01/01 09:33:27;;;;;;;24.82;13.13;;;;;;;13.13;64.51;99147.36;1821424;77;25644;-66
2023/01/01 09:35:53;;;;;;;19.30;10.60;;;;;;;13.38;65.05;99151.30;1813448;77;25663;-66
2023/01/01 09:38:19;;;;;;;27.30;15.45;;;;;;;13.60;64.34;99157.85;1817308;77;26894;-66
2023/01/01 09:41:08;;;;;;;496.50;273.70;;;;;;;13.82;63.78;99149.22;1817107;77;25780;-66
2023/01/01 09:43:54;;;;;;;275.48;146.55;;;;;;;14.05;62.71;99165.58;1814878;77;27917;-65
2023/01/01 09:46:23;;;;;;;185.78;93.82;;;;;;;14.27;62.75;99169.27;1816846;77;25652;-65
2023/01/01 09:48:57;;;;;;;59.65;30.12;;;;;;;14.49;62.93;99161.95;1865194;76;25715;-66
2023/01/01 09:51:25;;;;;;;33.73;19.90;;;;;;;14.62;62.82;99170.59;1871047;76;25777;-66
2023/01/01 09:54:28;;;;;;;119.93;53.02;;;;;;;14.79;62.88;99173.09;1813027;76;26430;-67
2023/01/01 09:56:59;;;;;;;128.55;56.02;;;;;;;14.97;61.87;99182.70;1848937;77;27515;-65
2023/01/01 09:59:27;;;;;;;689.65;375.30;;;;;;;15.29;61.87;99177.09;1848723;77;25776;-66
2023/01/01 10:02:22;;;;;;;54.70;26.85;;;;;;;15.57;60.41;99177.77;1817507;78;25750;-66
2023/01/01 10:05:22;;;;;;;537.55;286.82;;;;;;;15.90;59.60;99184.78;1823430;78;26449;-66
2023/01/01 10:08:17;;;;;;;26.50;13.83;;;;;;;16.31;58.90;99171.85;1768296;81;26107;-66
2023/01/01 10:11:13;;;;;;;529.08;272.37;;;;;;;16.78;56.77;99168.53;1768149;81;27034;-66
2023/01/01 10:13:42;;;;;;;88.20;42.20;;;;;;;17.06;56.36;99163.70;1742421;81;25756;-67
2023/01/01 10:16:25;;;;;;;216.88;100.33;;;;;;;17.33;54.02;99145.39;1734455;81;25896;-66
2023/01/01 10:18:56;;;;;;;65.83;33.15;;;;;;;17.47;52.35;99133.36;1770843;80;25731;-66
2023/01/01 10:21:27;;;;;;;42.55;22.35;;;;;;;17.75;53.98;99133.19;1741982;80;25775;-66
2023/01/01 10:24:18;;;;;;;22.02;11.70;;;;;;;17.97;52.15;99129.66;1755801;81;27318;-66
2023/01/01 10:26:46;;;;;;;65.65;34.35;;;;;;;17.90;49.77;99119.16;1756131;81;25647;-66
2023/01/01 10:29:23;;;;;;;250.87;143.17;;;;;;;18.09;50.54;99110.77;1731151;81;25739;-66
2023/01/01 10:31:50;;;;;;;496.50;300.57;;;;;;;18.23;50.79;99107.05;1756701;81;25710;-66
2023/01/01 10:34:24;;;;;;;52.98;30.92;;;;;;;18.57;50.85;99110.91;1756660;81;25640;-67
2023/01/01 10:36:55;;;;;;;413.75;283.90;;;;;;;18.79;49.56;99119.75;1752096;81;28445;-67
2023/01/01 10:39:22;;;;;;;45.45;30.10;;;;;;;19.03;49.95;99117.97;1731622;81;25756;-66
2023/01/01 10:41:48;;;;;;;26.62;18.40;;;;;;;19.31;49.02;99114.27;1707140;81;25697;-66
2023/01/01 10:44:20;;;;;;;64.40;44.35;;;;;;;19.65;49.15;99110.45;1755328;78;26555;-67
2023/01/01 10:46:52;;;;;;;130.82;100.92;;;;;;;20.11;47.53;99106.81;1797777;78;25532;-66
2023/01/01 10:49:19;;;;;;;19.48;12.40;;;;;;;20.45;47.23;99108.45;1827059;78;27241;-66
2023/01/01 10:51:51;;;;;;;14.30;10.78;;;;;;;20.72;45.90;99108.51;1773506;78;25450;-65
2023/01/01 10:54:39;;;;;;;42.67;35.58;;;;;;;20.77;44.69;99105.42;1800478;78;25609;-65
2023/01/01 10:57:31;;;;;;;26.17;21.27;;;;;;;20.73;46.27;99108.75;1773994;78;25734;-65
2023/01/01 11:00:27;;;;;;;51.58;45.98;;;;;;;20.66;45.32;99105.23;1826889;78;25677;-65
2023/01/01 11:03:20;;;;;;;13.22;11.85;;;;;;;20.42;44.59;99102.23;1799950;78;27519;-65
2023/01/01 11:06:20;;;;;;;7.33;4.58;;;;;;;20.12;45.64;99094.53;1797489;78;27183;-66
2023/01/01 11:08:50;;;;;;;11.83;9.60;;;;;;;20.00;44.61;99089.91;1826957;78;25468;-65
2023/01/01 11:11:33;;;;;;;13.53;10.35;;;;;;;19.72;44.48;99094.52;1800719;78;25831;-66
2023/01/01 11:14:07;;;;;;;12.80;8.38;;;;;;;19.55;46.64;99104.09;1826666;78;25721;-65
2023/01/01 11:16:37;;;;;;;9.18;6.08;;;;;;;19.60;47.07;99100.22;1800676;78;26820;-65
2023/01/01 11:19:06;;;;;;;;;;;;;;;19.56;45.79;99100.95;1773787;79;25611;-66
2023/01/01 11:21:34;;;;;;;13.10;9.35;;;;;;;19.59;46.52;99095.80;1782019;79;25427;-66
2023/01/01 11:24:28;;;;;;;9.28;6.53;;;;;;;19.68;46.34;99095.02;1797304;79;25709;-66
2023/01/01 11:27:24;;;;;;;8.73;5.40;;;;;;;19.81;46.32;99096.47;1766021;79;25615;-66
2023/01/01 11:29:53;;;;;;;9.75;8.18;;;;;;;19.86;45.22;99081.47;1756106;79;27326;-66
2023/01/01 11:32:24;;;;;;;6.95;5.15;;;;;;;19.89;45.18;99079.35;1737102;79;25916;-66
2023/01/01 11:35:01;;;;;;;8.73;5.25;;;;;;;20.01;45.29;99077.02;1797219;79;25494;-66
2023/01/01 11:37:38;;;;;;;11.08;6.47;;;;;;;19.95;44.06;99089.61;1781889;79;25589;-66
2023/01/01 11:40:10;;;;;;;9.33;6.87;;;;;;;19.82;45.01;99090.34;1781698;79;25661;-65
2023/01/01 11:42:36;;;;;;;9.65;6.80;;;;;;;19.77;45.52;99092.83;1780591;79;27437;-66
2023/01/01 11:45:17;;;;;;;9.90;6.83;;;;;;;19.80;45.73;99096.27;1756319;79;25684;-66
2023/01/01 11:47:44;;;;;;;13.15;8.53;;;;;;;19.81;45.78;99097.86;1781449;79;25652;-66
2023/01/01 11:50:37;;;;;;;10.28;7.78;;;;;;;19.87;45.45;99100.36;1797562;79;25846;-67
2023/01/01 11:53:24;;;;;;;10.72;7.10;;;;;;;19.93;45.47;99098.90;1781662;79;25151;-66